createdAt,value
2019-02-02T00:01:33.633Z,23.53
2019-02-02T00:04:07.802Z,28.07
2019-02-02T00:06:40.339Z,29.50
2019-02-02T00:09:11.834Z,26.50
2019-02-02T00:11:47.187Z,26.97
2019-02-02T00:14:18.060Z,182.17
2019-02-02T00:16:50.662Z,59.10
2019-02-02T00:19:22.694Z,34.97
2019-02-02T00:21:54.076Z,28.03
2019-02-02T00:24:25.613Z,30.93
2019-02-02T00:27:19.439Z,31.53
2019-02-02T00:29:53.620Z,38.03
2019-02-02T00:32:24.790Z,25.40
2019-02-02T00:34:58.172Z,24.47
2019-02-02T00:37:28.781Z,19.80
2019-02-02T00:40:01.651Z,24.70
2019-02-02T00:42:32.932Z,22.80
2019-02-02T00:45:03.748Z,36.40
2019-02-02T00:47:40.514Z,20.97
2019-02-02T00:50:12.001Z,26.77
2019-02-02T00:52:43.875Z,94.00
2019-02-02T00:55:15.299Z,72.20
2019-02-02T00:57:53.823Z,20.40
2019-02-02T01:00:32.795Z,20.43
2019-02-02T01:03:12.745Z,22.10
2019-02-02T01:05:43.460Z,91.17
2019-02-02T01:08:14.639Z,34.93
2019-02-02T01:10:46.011Z,19.80
2019-02-02T01:13:20.677Z,23.10
2019-02-02T01:15:51.692Z,22.47
2019-02-02T01:18:27.929Z,21.57
2019-02-02T01:20:58.619Z,27.13
2019-02-02T01:23:29.961Z,21.73
2019-02-02T01:26:03.726Z,27.73
2019-02-02T01:28:34.576Z,24.43
2019-02-02T01:31:06.489Z,26.20
2019-02-02T01:33:39.504Z,27.90
2019-02-02T01:36:12.121Z,23.03
2019-02-02T01:38:45.108Z,27.07
2019-02-02T01:41:17.463Z,21.33
2019-02-02T01:43:51.080Z,23.33
2019-02-02T01:46:24.023Z,20.47
2019-02-02T01:48:54.124Z,17.53
2019-02-02T01:51:28.272Z,18.77
2019-02-02T01:54:00.231Z,24.93
2019-02-02T01:56:35.463Z,17.57
2019-02-02T01:59:06.912Z,18.87
2019-02-02T02:01:46.449Z,31.37
2019-02-02T02:04:20.575Z,21.93
2019-02-02T02:06:50.776Z,19.17
2019-02-02T02:09:21.146Z,18.87
2019-02-02T02:11:52.358Z,22.73
2019-02-02T02:14:24.255Z,61.80
2019-02-02T02:16:55.759Z,25.20
2019-02-02T02:19:28.210Z,44.87
2019-02-02T02:21:59.496Z,25.53
2019-02-02T02:24:30.728Z,44.23
2019-02-02T02:27:02.750Z,45.93
2019-02-02T02:29:34.850Z,32.30
2019-02-02T02:32:07.560Z,26.57
2019-02-02T02:34:42.960Z,25.50
2019-02-02T02:37:15.005Z,27.53
2019-02-02T02:39:47.161Z,26.13
2019-02-02T02:42:21.280Z,56.00
2019-02-02T02:44:58.169Z,66.60
2019-02-02T02:47:32.566Z,31.30
2019-02-02T02:50:10.797Z,34.10
2019-02-02T02:52:45.707Z,26.90
2019-02-02T02:55:20.278Z,25.37
2019-02-02T02:57:55.621Z,27.50
2019-02-02T03:00:30.108Z,37.87
2019-02-02T03:03:00.221Z,42.53
2019-02-02T03:05:30.506Z,29.30
2019-02-02T03:08:00.961Z,69.83
2019-02-02T03:10:31.156Z,49.43
2019-02-02T03:13:01.766Z,39.13
2019-02-02T03:15:31.975Z,30.10
2019-02-02T03:18:02.278Z,123.13
2019-02-02T03:20:32.484Z,35.77
2019-02-02T03:23:02.790Z,70.37
2019-02-02T03:25:33.094Z,30.27
2019-02-02T03:28:03.603Z,32.17
2019-02-02T03:30:35.717Z,28.27
2019-02-02T03:33:06.431Z,29.43
2019-02-02T03:35:36.705Z,31.67
2019-02-02T03:38:06.854Z,33.90
2019-02-02T03:40:37.422Z,34.67
2019-02-02T03:43:07.542Z,29.20
2019-02-02T03:45:40.539Z,29.10
2019-02-02T03:48:09.696Z,32.23
2019-02-02T03:50:40.123Z,29.87
2019-02-02T03:53:13.161Z,28.10
2019-02-02T03:55:43.524Z,30.03
2019-02-02T03:58:14.521Z,29.60
2019-02-02T04:00:44.929Z,29.20
2019-02-02T04:03:19.575Z,27.90
2019-02-02T04:05:54.009Z,27.77
2019-02-02T04:08:27.689Z,28.93
2019-02-02T04:10:58.288Z,31.30
2019-02-02T04:13:32.414Z,31.20
2019-02-02T04:16:06.748Z,29.63
2019-02-02T04:18:41.601Z,31.60
2019-02-02T04:21:12.161Z,29.40
2019-02-02T04:23:44.455Z,29.73
2019-02-02T04:26:19.435Z,27.70
2019-02-02T04:28:49.645Z,27.27
2019-02-02T04:31:19.944Z,27.07
2019-02-02T04:33:51.525Z,28.27
2019-02-02T04:36:22.061Z,25.63
2019-02-02T04:38:52.347Z,26.67
2019-02-02T04:41:22.346Z,25.33
2019-02-02T04:43:52.533Z,27.37
2019-02-02T04:46:23.216Z,27.30
2019-02-02T04:48:53.391Z,23.60
2019-02-02T04:51:23.508Z,24.40
2019-02-02T04:53:54.057Z,26.17
2019-02-02T04:56:24.125Z,22.37
2019-02-02T04:58:54.261Z,27.87
2019-02-02T05:01:24.284Z,24.23
2019-02-02T05:03:56.425Z,23.93
2019-02-02T05:06:28.720Z,24.20
2019-02-02T05:08:58.731Z,25.63
2019-02-02T05:11:28.733Z,24.00
2019-02-02T05:14:01.942Z,20.70
2019-02-02T05:16:32.524Z,22.53
2019-02-02T05:19:02.692Z,23.57
2019-02-02T05:21:32.901Z,25.97
2019-02-02T05:24:02.919Z,21.97
2019-02-02T05:26:32.977Z,21.60
2019-02-02T05:29:03.217Z,20.17
2019-02-02T05:31:33.230Z,19.10
2019-02-02T05:34:05.975Z,19.70
2019-02-02T05:36:36.376Z,21.07
2019-02-02T05:39:09.455Z,24.23
2019-02-02T05:41:39.444Z,21.63
2019-02-02T05:44:09.919Z,20.30
2019-02-02T05:46:39.893Z,21.20
2019-02-02T05:49:10.187Z,23.63
2019-02-02T05:51:40.232Z,19.83
2019-02-02T05:54:10.422Z,21.40
2019-02-02T05:56:40.876Z,21.60
2019-02-02T05:59:11.094Z,24.43
2019-02-02T06:01:41.188Z,23.60
2019-02-02T06:04:12.556Z,22.07
2019-02-02T06:06:42.750Z,22.97
2019-02-02T06:09:12.976Z,25.27
2019-02-02T06:11:43.276Z,26.20
2019-02-02T06:14:13.402Z,26.23
2019-02-02T06:16:43.367Z,23.20
2019-02-02T06:19:13.382Z,25.30
2019-02-02T06:21:44.880Z,24.00
2019-02-02T06:24:15.407Z,22.03
2019-02-02T06:26:45.380Z,21.83
2019-02-02T06:29:15.613Z,21.57
2019-02-02T06:31:45.663Z,22.57
2019-02-02T06:34:16.597Z,22.13
2019-02-02T06:36:46.693Z,21.10
2019-02-02T06:39:17.155Z,19.83
2019-02-02T06:41:47.291Z,19.73
2019-02-02T06:44:17.778Z,18.20
2019-02-02T06:46:48.244Z,19.93
2019-02-02T06:49:18.370Z,19.73
2019-02-02T06:51:48.560Z,23.43
2019-02-02T06:54:18.630Z,21.70
2019-02-02T06:56:48.872Z,20.10
2019-02-02T06:59:19.006Z,19.07
2019-02-02T07:01:49.152Z,20.90
2019-02-02T07:04:19.163Z,18.90
2019-02-02T07:06:54.640Z,19.13
2019-02-02T07:09:24.893Z,18.67
2019-02-02T07:11:54.872Z,18.80
2019-02-02T07:14:25.556Z,15.17
2019-02-02T07:16:55.634Z,16.47
2019-02-02T07:19:29.101Z,17.20
2019-02-02T07:21:59.139Z,17.93
2019-02-02T07:24:29.146Z,17.17
2019-02-02T07:26:59.177Z,19.50
2019-02-02T07:29:29.300Z,17.80
2019-02-02T07:31:59.369Z,16.80
2019-02-02T07:34:29.537Z,15.87
2019-02-02T07:36:59.500Z,15.30
2019-02-02T07:39:29.825Z,15.57
2019-02-02T07:42:01.316Z,14.23
2019-02-02T07:44:31.389Z,15.40
2019-02-02T07:47:01.785Z,14.93
2019-02-02T07:49:31.891Z,14.60
2019-02-02T07:52:02.054Z,14.40
2019-02-02T07:54:33.215Z,13.37
2019-02-02T07:57:05.248Z,12.20
2019-02-02T07:59:35.777Z,13.47
2019-02-02T08:02:06.279Z,14.87
2019-02-02T08:04:36.292Z,13.53
2019-02-02T08:07:08.263Z,14.50
2019-02-02T08:09:38.762Z,14.33
2019-02-02T08:12:12.822Z,14.07
2019-02-02T08:14:43.074Z,18.30
2019-02-02T08:17:13.681Z,15.67
2019-02-02T08:19:44.272Z,16.47
2019-02-02T08:22:14.649Z,15.87
2019-02-02T08:24:44.877Z,12.37
2019-02-02T08:27:17.454Z,14.70
2019-02-02T08:29:49.444Z,14.67
2019-02-02T08:32:19.574Z,17.47
2019-02-02T08:34:49.894Z,18.63
2019-02-02T08:37:20.181Z,15.27
2019-02-02T08:39:50.950Z,14.93
2019-02-02T08:42:23.040Z,13.93
2019-02-02T08:45:07.376Z,14.00
2019-02-02T08:47:39.811Z,16.33
2019-02-02T08:50:14.830Z,15.90
2019-02-02T08:52:45.718Z,21.00
2019-02-02T08:55:16.173Z,15.10
2019-02-02T08:57:47.287Z,12.37
2019-02-02T09:00:21.573Z,11.53
2019-02-02T09:02:51.863Z,12.83
2019-02-02T09:05:23.697Z,17.07
2019-02-02T09:07:54.433Z,12.40
2019-02-02T09:10:26.496Z,10.87
2019-02-02T09:12:57.243Z,9.70
2019-02-02T09:15:30.960Z,9.90
2019-02-02T09:18:07.066Z,15.40
2019-02-02T09:20:37.126Z,10.50
2019-02-02T09:23:12.361Z,12.30
2019-02-02T09:25:42.575Z,10.53
2019-02-02T09:28:17.677Z,10.00
2019-02-02T09:30:48.073Z,9.87
2019-02-02T09:33:22.090Z,10.17
2019-02-02T09:35:55.904Z,27.37
2019-02-02T09:38:44.210Z,16.43
2019-02-02T09:41:14.662Z,20.97
2019-02-02T09:43:45.204Z,22.23
2019-02-02T09:46:22.198Z,20.17
2019-02-02T09:48:52.492Z,21.90
2019-02-02T09:51:23.337Z,24.33
2019-02-02T09:53:59.154Z,26.50
2019-02-02T09:56:34.288Z,28.50
2019-02-02T09:59:19.143Z,33.70
2019-02-02T10:01:52.103Z,28.40
2019-02-02T10:04:27.211Z,28.20
2019-02-02T10:06:57.620Z,27.30
2019-02-02T10:09:30.470Z,27.80
2019-02-02T10:12:15.277Z,28.90
2019-02-02T10:14:46.132Z,27.27
2019-02-02T10:17:25.190Z,29.17
2019-02-02T10:19:56.356Z,30.73
2019-02-02T10:22:27.234Z,29.17
2019-02-02T10:25:02.495Z,26.07
2019-02-02T10:27:37.651Z,26.70
2019-02-02T10:30:13.737Z,24.37
2019-02-02T10:32:49.977Z,26.90
2019-02-02T10:35:21.436Z,28.10
2019-02-02T10:37:54.405Z,26.70
2019-02-02T10:40:29.774Z,24.10
2019-02-02T10:42:58.567Z,26.00
2019-02-02T10:45:31.368Z,28.67
2019-02-02T10:48:08.105Z,29.60
2019-02-02T10:50:40.078Z,29.67
2019-02-02T10:57:24.840Z,30.27
2019-02-02T10:59:55.217Z,32.27
2019-02-02T11:02:26.020Z,34.80
2019-02-02T11:05:06.604Z,36.10
2019-02-02T11:07:37.789Z,32.67
2019-02-02T11:10:11.758Z,33.23
2019-02-02T11:12:42.835Z,31.47
2019-02-02T11:15:18.082Z,37.87
2019-02-02T11:17:49.274Z,36.77
2019-02-02T11:20:30.808Z,33.87
2019-02-02T11:23:01.875Z,37.27
2019-02-02T11:25:36.842Z,36.67
2019-02-02T11:28:07.928Z,36.60
2019-02-02T11:30:42.426Z,34.27
2019-02-02T11:33:13.153Z,33.40
2019-02-02T11:35:50.248Z,34.87
2019-02-02T11:38:20.748Z,42.30
2019-02-02T11:40:52.263Z,35.63
2019-02-02T11:43:26.434Z,34.93
2019-02-02T11:46:00.192Z,35.70
2019-02-02T11:48:33.468Z,32.73
2019-02-02T11:51:16.222Z,34.87
2019-02-02T11:53:46.433Z,29.87
2019-02-02T11:56:20.819Z,38.70
2019-02-02T11:58:51.339Z,37.23
2019-02-02T12:01:23.768Z,31.80
2019-02-02T12:03:54.118Z,34.03
2019-02-02T12:06:27.373Z,33.30
2019-02-02T12:08:59.376Z,36.17
2019-02-02T12:11:29.621Z,30.90
2019-02-02T12:14:00.624Z,31.87
2019-02-02T12:16:34.475Z,30.03
2019-02-02T12:19:07.711Z,29.40
2019-02-02T12:21:42.431Z,28.30
2019-02-02T12:24:16.702Z,28.07
2019-02-02T12:26:53.896Z,28.77
2019-02-02T12:29:28.224Z,28.20
2019-02-02T12:32:04.143Z,28.40
2019-02-02T12:34:34.556Z,31.43
2019-02-02T12:37:06.369Z,28.87
2019-02-02T12:39:37.959Z,33.53
2019-02-02T12:42:15.102Z,26.60
2019-02-02T12:44:55.011Z,28.70
2019-02-02T12:47:28.938Z,28.50
2019-02-02T12:50:02.843Z,29.83
2019-02-02T12:52:36.722Z,28.87
2019-02-02T12:55:22.190Z,31.53
2019-02-02T13:00:49.889Z,32.90
2019-02-02T13:03:23.887Z,34.10
2019-02-02T13:05:54.327Z,33.90
2019-02-02T13:08:29.040Z,42.77
2019-02-02T13:11:02.215Z,39.43
2019-02-02T13:13:37.271Z,36.43
2019-02-02T13:16:06.383Z,43.70
2019-02-02T13:18:36.778Z,41.63
2019-02-02T13:21:12.269Z,44.53
2019-02-02T13:23:46.968Z,46.30
2019-02-02T13:26:18.127Z,43.77
2019-02-02T13:28:49.063Z,47.50
2019-02-02T13:31:22.499Z,49.30
2019-02-02T13:33:53.460Z,44.77
2019-02-02T13:36:26.599Z,54.37
2019-02-02T13:38:56.547Z,67.40
2019-02-02T13:41:29.886Z,43.60
2019-02-02T13:44:02.641Z,46.10
2019-02-02T13:46:38.260Z,43.90
2019-02-02T13:49:12.766Z,44.43
2019-02-02T13:51:46.132Z,47.97
2019-02-02T13:54:16.384Z,50.13
2019-02-02T13:56:49.778Z,67.53
2019-02-02T13:59:22.819Z,49.70
2019-02-02T14:01:55.010Z,49.77
2019-02-02T14:04:27.563Z,45.03
2019-02-02T14:06:57.592Z,45.40
2019-02-02T14:09:30.654Z,48.30
2019-02-02T14:12:01.471Z,47.87
2019-02-02T14:14:31.643Z,45.60
2019-02-02T14:17:03.733Z,44.07
2019-02-02T14:19:38.247Z,50.40
2019-02-02T14:22:12.714Z,46.53
2019-02-02T14:24:46.755Z,42.27
2019-02-02T14:27:21.345Z,47.57
2019-02-02T14:29:56.648Z,46.47
2019-02-02T14:32:28.995Z,43.73
2019-02-02T14:35:11.080Z,42.03
2019-02-02T14:37:49.523Z,50.73
2019-02-02T14:40:20.776Z,40.20
2019-02-02T14:42:54.343Z,45.33
2019-02-02T14:45:29.828Z,50.57
2019-02-02T14:48:06.101Z,47.00
2019-02-02T14:50:42.018Z,77.80
2019-02-02T14:53:18.078Z,43.57
2019-02-02T14:55:50.480Z,40.57
2019-02-02T14:58:21.625Z,43.00
2019-02-02T15:00:53.942Z,47.33
2019-02-02T15:03:26.208Z,47.00
2019-02-02T15:05:57.718Z,45.50
2019-02-02T15:08:29.568Z,43.77
2019-02-02T15:11:04.090Z,60.70
2019-02-02T15:13:37.068Z,43.43
2019-02-02T15:16:23.092Z,46.47
2019-02-02T15:19:02.868Z,56.33
2019-02-02T15:21:40.079Z,53.63
2019-02-02T15:24:19.189Z,56.80
2019-02-02T15:26:57.288Z,68.13
2019-02-02T15:29:28.829Z,71.07
2019-02-02T15:32:09.852Z,51.70
2019-02-02T15:34:43.395Z,48.77
2019-02-02T15:37:23.081Z,51.97
2019-02-02T15:39:59.658Z,48.77
2019-02-02T15:42:31.624Z,46.00
2019-02-02T15:45:05.889Z,50.80
2019-02-02T15:47:38.466Z,48.37
2019-02-02T15:50:15.179Z,52.13
2019-02-02T15:52:55.485Z,63.53
2019-02-02T15:55:38.047Z,60.47
2019-02-02T15:58:16.451Z,49.93
2019-02-02T16:01:19.482Z,47.13
2019-02-02T16:04:12.141Z,51.67
2019-02-02T16:06:58.623Z,56.23
2019-02-02T16:09:32.053Z,49.77
2019-02-02T16:12:18.302Z,50.57
2019-02-02T16:14:55.010Z,78.60
2019-02-02T16:17:30.821Z,51.27
2019-02-02T16:20:12.809Z,47.87
2019-02-02T16:22:49.274Z,50.30
2019-02-02T16:25:32.370Z,46.33
2019-02-02T16:28:14.596Z,46.63
2019-02-02T16:30:47.376Z,61.37
2019-02-02T16:33:18.934Z,52.00
2019-02-02T16:35:57.921Z,51.00
2019-02-02T16:38:32.356Z,51.00
2019-02-02T16:41:05.120Z,49.93
2019-02-02T16:43:38.452Z,51.10
2019-02-02T16:46:10.119Z,55.53
2019-02-02T16:48:44.663Z,52.10
2019-02-02T16:51:16.574Z,65.67
2019-02-02T16:53:48.364Z,50.57
2019-02-02T16:56:21.396Z,54.50
2019-02-02T16:58:52.056Z,49.70
2019-02-02T17:01:34.804Z,51.10
2019-02-02T17:04:16.310Z,55.97
2019-02-02T17:06:47.319Z,52.23
2019-02-02T17:09:21.334Z,58.67
2019-02-02T17:11:55.878Z,52.43
2019-02-02T17:14:28.836Z,54.30
2019-02-02T17:16:59.897Z,47.53
2019-02-02T17:19:33.524Z,58.60
2019-02-02T17:22:12.252Z,51.17
2019-02-02T17:24:50.293Z,54.00
2019-02-02T17:27:28.564Z,55.40
2019-02-02T17:29:59.417Z,51.77
2019-02-02T17:32:30.885Z,74.80
2019-02-02T17:35:06.268Z,54.77
2019-02-02T17:37:38.852Z,55.73
2019-02-02T17:40:21.748Z,57.33
2019-02-02T17:42:54.735Z,56.27
2019-02-02T17:45:29.286Z,61.47
2019-02-02T17:48:04.357Z,56.77
2019-02-02T17:50:39.885Z,58.17
2019-02-02T17:53:16.876Z,81.97
2019-02-02T17:55:51.762Z,65.03
2019-02-02T17:58:24.315Z,60.37
2019-02-02T18:01:01.917Z,64.93
2019-02-02T18:03:40.307Z,55.20
2019-02-02T18:06:15.074Z,59.27
2019-02-02T18:09:04.540Z,54.87
2019-02-02T18:11:37.013Z,56.77
2019-02-02T18:14:10.320Z,60.40
2019-02-02T18:16:43.279Z,54.30
2019-02-02T18:19:27.258Z,65.97
2019-02-02T18:22:29.460Z,54.60
2019-02-02T18:25:09.262Z,58.43
2019-02-02T18:27:43.237Z,59.60
2019-02-02T18:30:29.183Z,53.13
2019-02-02T18:33:05.770Z,63.57
2019-02-02T18:35:37.930Z,67.80
2019-02-02T18:38:21.351Z,62.67
2019-02-02T18:40:52.420Z,52.70
2019-02-02T18:43:29.259Z,60.93
2019-02-02T18:46:07.874Z,50.23
2019-02-02T18:48:41.216Z,58.60
2019-02-02T18:51:37.366Z,54.03
2019-02-02T18:54:59.651Z,56.17
2019-02-02T18:57:33.326Z,51.97
2019-02-02T19:00:24.869Z,63.80
2019-02-02T19:02:57.338Z,68.57
2019-02-02T19:05:38.731Z,50.60
2019-02-02T19:08:46.510Z,50.37
2019-02-02T19:11:39.646Z,56.23
2019-02-02T19:14:16.269Z,55.40
2019-02-02T19:17:01.103Z,48.00
2019-02-02T19:19:30.247Z,50.20
2019-02-02T19:22:07.186Z,50.30
2019-02-02T19:24:43.680Z,52.27
2019-02-02T19:27:17.711Z,56.13
2019-02-02T19:29:55.958Z,46.97
2019-02-02T19:32:29.343Z,59.77
2019-02-02T19:35:02.167Z,67.93
2019-02-02T19:37:42.215Z,61.70
2019-02-02T19:40:22.816Z,51.20
2019-02-02T19:42:55.705Z,46.70
2019-02-02T19:45:32.654Z,58.23
2019-02-02T19:48:13.789Z,71.97
2019-02-02T19:50:59.685Z,56.43
2019-02-02T19:53:32.692Z,95.30
2019-02-02T19:56:04.718Z,56.00
2019-02-02T19:58:50.421Z,50.23
2019-02-02T20:04:40.361Z,48.97
2019-02-02T20:07:17.702Z,44.90
2019-02-02T20:14:12.937Z,67.73
2019-02-02T20:16:59.749Z,81.40
2019-02-02T20:19:39.646Z,85.83
2019-02-02T20:22:23.360Z,65.13
2019-02-02T20:25:22.280Z,55.20
2019-02-02T20:28:30.724Z,54.30
2019-02-02T20:31:10.463Z,60.73
2019-02-02T20:33:42.205Z,57.03
2019-02-02T20:36:29.085Z,58.37
2019-02-02T20:39:03.283Z,86.17
2019-02-02T20:42:01.632Z,59.93
2019-02-02T20:44:38.771Z,58.17
2019-02-02T20:47:40.088Z,58.30
2019-02-02T20:50:32.424Z,61.80
2019-02-02T20:53:31.133Z,63.23
2019-02-02T20:56:19.272Z,84.60
2019-02-02T21:02:55.733Z,66.97
2019-02-02T21:05:52.567Z,64.17
2019-02-02T21:09:05.102Z,64.43
2019-02-02T21:12:32.275Z,60.33
2019-02-02T21:15:12.242Z,65.60
2019-02-02T21:18:30.876Z,111.40
2019-02-02T21:21:25.110Z,67.33
2019-02-02T21:24:05.109Z,70.03
2019-02-02T21:26:43.596Z,66.63
2019-02-02T21:29:29.797Z,87.40
2019-02-02T21:32:12.841Z,70.87
2019-02-02T21:35:13.071Z,70.87
2019-02-02T21:37:58.798Z,71.57
2019-02-02T21:40:43.261Z,67.63
2019-02-02T21:43:32.169Z,68.77
2019-02-02T21:46:14.486Z,74.30
2019-02-02T21:49:02.016Z,60.43
2019-02-02T21:51:44.680Z,74.23
2019-02-02T21:54:26.634Z,68.73
2019-02-02T21:57:07.159Z,129.47
2019-02-02T21:59:51.975Z,126.07
2019-02-02T22:02:32.062Z,67.13
2019-02-02T22:05:25.585Z,99.63
2019-02-02T22:08:14.505Z,74.13
2019-02-02T22:10:47.730Z,70.63
2019-02-02T22:13:22.367Z,66.73
2019-02-02T22:15:58.382Z,82.80
2019-02-02T22:18:37.258Z,59.53
2019-02-02T22:21:14.241Z,61.70
2019-02-02T22:23:57.821Z,57.50
2019-02-02T22:26:41.647Z,97.83
2019-02-02T22:29:34.852Z,65.70
2019-02-02T22:32:05.720Z,74.93
2019-02-02T22:34:37.014Z,102.40
2019-02-02T22:37:08.266Z,165.87
2019-02-02T22:39:39.882Z,68.37
2019-02-02T22:42:21.336Z,62.40
2019-02-02T22:44:52.236Z,61.73
2019-02-02T22:47:39.613Z,66.90
2019-02-02T22:50:13.459Z,72.30
2019-02-02T22:52:47.875Z,67.33
2019-02-02T22:55:23.657Z,54.83
2019-02-02T22:57:56.487Z,60.33
2019-02-02T23:01:03.307Z,68.57
2019-02-02T23:03:37.994Z,65.07
2019-02-02T23:06:39.324Z,144.43
2019-02-02T23:09:45.367Z,79.07
2019-02-02T23:12:49.455Z,69.63
2019-02-02T23:15:48.046Z,56.93
2019-02-02T23:18:23.695Z,51.50
2019-02-02T23:20:55.717Z,52.50
2019-02-02T23:23:32.273Z,63.93
2019-02-02T23:26:13.305Z,46.33
2019-02-02T23:28:47.244Z,85.73
2019-02-02T23:31:19.672Z,85.67
2019-02-02T23:33:56.260Z,78.20
2019-02-02T23:36:33.840Z,63.73
2019-02-02T23:39:14.120Z,60.97
2019-02-02T23:41:47.104Z,65.33
2019-02-02T23:44:19.674Z,72.33
2019-02-02T23:46:54.208Z,77.37
2019-02-02T23:49:29.415Z,59.20
2019-02-02T23:52:04.804Z,76.70
2019-02-02T23:54:42.054Z,94.17
2019-02-02T23:57:16.082Z,56.40
2019-02-02T23:59:48.592Z,56.17
